Flight Track Log - Related Links

Times and Time Zones

All times are in EDT time to prevent confusion due to time zone crossing. See the DAL3982 flight status page for this flight to view local times or setup timezone preferences in your user account.

Time Position Orientation Groundspeed Altitude Reporting Facility
EDT Latitude Longitude Course Direction KTS MPH feet Rate Location/Type
Wed 21:44:52 33.6500 -84.3833 12° North 163 188 2,700  Level Atlanta TRACON
Wed 21:45:46 33.6667 -84.3167 73° East 222 255 4,200 1,895 Climbing Atlanta TRACON
Wed 21:46:46 33.6833 -84.2333 76° East 266 306 6,300 2,242 Climbing Atlanta TRACON
Wed 21:47:00 33.9823 -84.3419 12° North  Level FlightAware Approximate
Wed 21:48:00 34.0962 -84.3148 North  Level FlightAware Approximate
Wed 21:49:00 34.2128 -84.2967 12° North  Level FlightAware Approximate
Wed 21:49:04 33.8547 -84.2264 North 302 348 11,600  Level Atlanta Center
Wed 21:50:00 34.3278 -84.2670 12° North  Level FlightAware Approximate
Wed 21:50:04 33.9528 -84.2417 353° North 329 379 12,900  Level Atlanta Center
Wed 21:51:04 34.0592 -84.2544 354° North 367 422 14,500 1,450 Climbing Atlanta Center
Wed 21:52:04 34.1781 -84.2697 354° North 394 453 15,800 1,450 Climbing Atlanta Center
Wed 21:53:04 34.3033 -84.2778 357° North 435 501 17,400 1,750 Climbing Atlanta Center
Wed 21:54:04 34.4181 -84.2528 10° North 435 501 19,300 2,050 Climbing Atlanta Center
Wed 21:55:04 34.5350 -84.2278 10° North 430 495 21,500 2,000 Climbing Atlanta Center
Wed 21:56:04 34.6478 -84.1953 13° North 425 489 23,300 1,400 Climbing Atlanta Center
Wed 21:57:04 34.7647 -84.1728 North 417 480 24,300 1,000 Climbing Atlanta Center
Wed 21:58:04 34.8858 -84.1425 12° North 430 495 25,300 1,000 Climbing Atlanta Center
Wed 21:59:04 35.0108 -84.1122 11° North 441 507 26,300 850 Climbing Atlanta Center
Wed 22:00:04 35.1425 -84.0794 12° North 453 521 27,000 350 Climbing Atlanta Center
Wed 22:01:04 35.2739 -84.0489 11° North 471 542 27,000  Level Atlanta Center
Wed 22:02:04 35.4075 -84.0158 11° North 476 548 27,000  Level Atlanta Center
Wed 22:03:04 35.5389 -83.9853 11° North 476 548 27,000  Level Atlanta Center
Wed 22:04:04 35.6681 -83.9519 12° North 476 548 27,000  Level Atlanta Center
Wed 22:05:04 35.7994 -83.9208 11° North 476 548 27,000  Level Atlanta Center
Wed 22:06:04 35.9308 -83.8797 14° North 476 548 27,000  Level Atlanta Center
Wed 22:07:04 36.0497 -83.8025 28° Northeast 476 548 27,000  Level Atlanta Center
Wed 22:09:14 36.3075 -83.6389 27° Northeast 479 551 27,000  Level Indianapolis Center
Wed 22:10:16 36.4267 -83.5647 27° Northeast 479 551 27,000  Level Indianapolis Center
Wed 22:11:17 36.5369 -83.4947 27° Northeast 481 554 27,000  Level Indianapolis Center
Wed 22:12:18 36.6564 -83.4194 27° Northeast 479 551 27,000  Level Indianapolis Center
Wed 22:13:19 36.7739 -83.3436 27° Northeast 474 545 27,000  Level Indianapolis Center
Wed 22:14:20 36.8922 -83.2678 27° Northeast 473 544 27,000  Level Indianapolis Center
Wed 22:15:21 37.0317 -83.1775 27° Northeast 475 547 27,000  Level Indianapolis Center
Wed 22:16:22 37.1511 -83.0992 28° Northeast 478 550 27,000  Level Indianapolis Center
Wed 22:17:23 37.2694 -83.0217 28° Northeast 475 547 27,000  Level Indianapolis Center
Wed 22:18:24 37.3858 -82.9383 30° Northeast 477 549 27,000  Level Indianapolis Center
Wed 22:19:25 37.4919 -82.8369 37° Northeast 478 550 27,000  Level Indianapolis Center
Wed 22:20:27 37.5994 -82.7381 36° Northeast 477 549 27,000  Level Indianapolis Center
Wed 22:21:28 37.7064 -82.6394 36° Northeast 474 545 27,000  Level Indianapolis Center
Wed 22:22:29 37.8131 -82.5394 37° Northeast 475 547 27,000  Level Indianapolis Center
Wed 22:23:30 37.9192 -82.4400 36° Northeast 474 545 27,000  Level Indianapolis Center
Wed 22:24:31 38.0258 -82.3403 36° Northeast 475 547 27,000  Level Indianapolis Center
Wed 22:25:32 38.1322 -82.2383 37° Northeast 474 545 27,000  Level Indianapolis Center
Wed 22:26:33 38.2389 -82.1383 36° Northeast 476 548 27,000  Level Indianapolis Center
Wed 22:27:34 38.3444 -82.0383 37° Northeast 471 542 27,000  Level Indianapolis Center
Wed 22:28:35 38.4500 -81.9356 37° Northeast 476 548 27,000  Level Indianapolis Center
Wed 22:29:36 38.5558 -81.8350 37° Northeast 473 544 27,000  Level Indianapolis Center
Wed 22:30:37 38.6633 -81.7325 37° Northeast 476 548 27,000  Level Indianapolis Center
Wed 22:31:38 38.7731 -81.6253 37° Northeast 478 550 27,000  Level Indianapolis Center
Wed 22:32:40 38.8814 -81.5208 37° Northeast 474 545 27,000  Level Indianapolis Center
Wed 22:33:41 38.9869 -81.4175 37° Northeast 475 547 27,000  Level Indianapolis Center
Wed 22:34:42 39.0919 -81.3150 37° Northeast 472 543 27,000  Level Indianapolis Center
Wed 22:35:43 39.1964 -81.2122 37° Northeast 471 542 27,000  Level Indianapolis Center
Wed 22:36:44 39.3000 -81.1097 37° Northeast 470 541 27,000  Level Indianapolis Center
Wed 22:37:45 39.4036 -81.0075 37° Northeast 467 537 27,000  Level Indianapolis Center
Wed 22:38:46 39.5056 -80.9053 38° Northeast 465 535 27,000  Level Indianapolis Center
Wed 22:39:47 39.6300 -80.7817 37° Northeast 467 537 27,000  Level Indianapolis Center
Wed 22:40:21 39.6919 -80.7233 36° Northeast 470 541 27,000  Level Cleveland Center
Wed 22:41:21 39.7942 -80.6208 38° Northeast 465 535 27,000  Level Cleveland Center
Wed 22:42:21 39.8961 -80.5181 38° Northeast 465 535 27,000  Level Cleveland Center
Wed 22:43:21 39.9983 -80.4150 38° Northeast 465 535 27,000  Level Cleveland Center
Wed 22:44:21 40.1003 -80.3117 38° Northeast 465 535 27,000  Level Cleveland Center
Wed 22:45:21 40.2019 -80.2081 38° Northeast 465 535 27,000  Level Cleveland Center
Wed 22:46:21 40.3017 -80.1039 39° Northeast 465 535 27,000  Level Cleveland Center
Wed 22:47:21 40.3931 -80.0106 38° Northeast 465 535 27,000  Level Cleveland Center
Wed 22:48:21 40.4989 -79.9033 38° Northeast 472 543 27,000  Level Cleveland Center
Wed 22:49:21 40.5981 -79.7983 39° Northeast 467 537 27,000  Level Cleveland Center
Wed 22:50:21 40.6975 -79.6958 38° Northeast 467 537 27,000  Level Cleveland Center
Wed 22:51:21 40.8008 -79.5875 38° Northeast 462 532 27,000  Level Cleveland Center
Wed 22:52:21 40.9000 -79.4842 38° Northeast 462 532 27,000  Level Cleveland Center
Wed 22:53:21 41.0011 -79.3808 38° Northeast 462 532 27,000  Level Cleveland Center
Wed 22:54:21 41.1000 -79.2742 39° Northeast 462 532 27,000  Level Cleveland Center
Wed 22:55:21 41.2008 -79.1675 39° Northeast 462 532 27,000  Level Cleveland Center
Wed 22:56:21 41.3017 -79.0603 39° Northeast 462 532 27,000  Level Cleveland Center
Wed 22:57:21 41.4022 -78.9525 39° Northeast 462 532 27,000  Level Cleveland Center
Wed 22:58:21 41.5111 -78.8361 39° Northeast 462 532 27,000  Level Cleveland Center
Wed 22:59:21 41.6114 -78.7281 39° Northeast 462 532 27,000  Level Cleveland Center
Wed 23:00:21 41.7097 -78.6194 39° Northeast 462 532 27,000  Level Cleveland Center
Wed 23:01:21 41.8081 -78.5133 39° Northeast 462 532 27,000  Level Cleveland Center
Wed 23:02:21 41.9081 -78.4042 39° Northeast 462 532 27,000  Level Cleveland Center
Wed 23:03:21 42.0039 -78.2947 40° Northeast 457 526 27,000  Level Cleveland Center
Wed 23:04:21 42.1061 -78.1875 38° Northeast 457 526 27,000  Level Cleveland Center
Wed 23:05:21 42.2039 -78.0800 39° Northeast 457 526 27,000  Level Cleveland Center
Wed 23:06:21 42.3056 -77.9692 39° Northeast 457 526 27,000  Level Cleveland Center
Wed 23:07:21 42.4011 -77.8614 40° Northeast 457 526 27,000  Level Cleveland Center
Wed 23:08:21 42.4983 -77.7528 39° Northeast 457 526 27,000  Level Cleveland Center
Wed 23:09:21 42.5958 -77.6414 40° Northeast 457 526 27,000  Level Cleveland Center
Wed 23:10:21 42.6931 -77.5322 40° Northeast 452 520 27,000  Level Cleveland Center
Wed 23:11:21 42.7839 -77.4289 40° Northeast 461 531 27,000  Level Cleveland Center
Wed 23:13:14 42.9758 -77.2114 40° Northeast 452 520 27,000  Level Boston Center
Wed 23:14:14 43.0744 -77.0967 40° Northeast 452 520 27,000  Level Boston Center
Wed 23:15:26 43.1922 -76.9633 40° Northeast 452 520 27,000  Level Boston Center
Wed 23:16:26 43.2886 -76.8506 40° Northeast 452 520 27,000  Level Boston Center
Wed 23:17:26 43.3867 -76.7347 41° Northeast 452 520 27,000  Level Boston Center
Wed 23:18:26 43.4781 -76.6325 39° Northeast 457 526 27,000  Level Boston Center
Wed 23:19:26 43.5761 -76.5161 41° Northeast 457 526 27,000  Level Boston Center
Wed 23:20:26 43.6806 -76.3939 40° Northeast 452 520 27,000  Level Boston Center
Wed 23:21:26 43.7783 -76.2764 41° Northeast 447 514 27,000  Level Boston Center
Wed 23:22:26 43.8758 -76.1617 40° Northeast 447 514 27,000  Level Boston Center
Wed 23:23:26 43.9733 -76.0494 40° Northeast 447 514 27,000  Level Boston Center
Wed 23:24:26 44.0744 -75.9458 36° Northeast 447 514 27,000  Level Boston Center
Wed 23:25:26 44.1658 -75.8236 44° Northeast 447 514 27,000  Level Boston Center
Wed 23:26:26 44.2589 -75.6986 44° Northeast 447 514 27,000  Level Boston Center
Wed 23:27:26 44.3478 -75.5786 44° Northeast 447 514 27,000  Level Boston Center
Wed 23:28:26 44.4406 -75.4583 43° Northeast 447 514 27,000  Level Boston Center
Wed 23:29:26 44.5314 -75.3347 44° Northeast 447 514 27,000  Level Boston Center
Wed 23:30:26 44.6219 -75.2108 44° Northeast 447 514 27,000 -303 Level Boston Center
Wed 23:31:05 44.6667 -75.1167 56° Northeast 450 518 26,500 -1,455 Descending Montreal Center
Wed 23:32:05 44.7500 -75.0333 35° Northeast 430 495 24,600 -1,900 Descending Montreal Center
Wed 23:33:05 44.8333 -74.9000 49° Northeast 410 472 22,700 -1,900 Descending Montreal Center
Wed 23:34:05 44.9167 -74.7833 45° Northeast 410 472 20,800 -1,950 Descending Montreal Center
Wed 23:35:05 45.0000 -74.6833 40° Northeast 410 472 18,800 -1,700 Descending Montreal Center
Wed 23:36:05 45.0833 -74.5667 45° Northeast 400 460 17,400 -1,700 Descending Montreal Center
Wed 23:37:05 45.1667 -74.4667 40° Northeast 390 449 15,400 -1,900 Descending Montreal Center
Wed 23:38:05 45.2333 -74.3500 51° Northeast 360 414 13,600 -1,900 Descending Montreal Center
Wed 23:39:05 45.3000 -74.2500 47° Northeast 340 391 11,600 -1,600 Descending Montreal Center
Wed 23:40:05 45.3500 -74.1500 55° Northeast 300 345 10,400 -1,400 Descending Montreal Center
Wed 23:41:05 45.4000 -74.0833 43° Northeast 280 322 8,800 -1,600 Descending Montreal Center
Wed 23:42:05 45.4333 -74.0167 55° Northeast 270 311 7,200 -1,550 Descending Montreal Center
Wed 23:43:05 45.4833 -73.9167 54° Northeast 270 311 5,700 -1,550 Descending Montreal Center
Wed 23:44:05 45.5333 -73.8333 49° Northeast 260 299 4,100 -850 Descending Montreal Center
Wed 23:45:05 45.5833 -73.7667 43° Northeast 260 299 4,000 -50 Descending Montreal Center
Wed 23:46:05 45.6167 -73.6667 64° Northeast 250 288 4,000 -350 Level Montreal Center
Wed 23:47:05 45.6333 -73.6000 70° East 190 219 3,300 -700 Descending Montreal Center

Login

Don't have an account? Register now (free) for customized features, flight alerts, and more!